sensor_id;sensor_type;location;lat;lon;timestamp;pressure;altitude;pressure_sealevel;temperature;humidity
48156;BME280;35568;48.104;11.782;2023-04-28T00:01:59;95370.28;;;8.39;50.87
48156;BME280;35568;48.104;11.782;2023-04-28T00:04:26;95369.64;;;8.17;50.90
48156;BME280;35568;48.104;11.782;2023-04-28T00:06:53;95369.82;;;8.40;50.86
48156;BME280;35568;48.104;11.782;2023-04-28T00:09:20;95367.00;;;8.31;51.05
48156;BME280;35568;48.104;11.782;2023-04-28T00:11:46;95367.67;;;8.05;51.22
48156;BME280;35568;48.104;11.782;2023-04-28T00:14:13;95366.20;;;8.08;51.15
48156;BME280;35568;48.104;11.782;2023-04-28T00:16:40;95363.29;;;8.17;50.86
48156;BME280;35568;48.104;11.782;2023-04-28T00:19:07;95364.97;;;8.74;50.75
48156;BME280;35568;48.104;11.782;2023-04-28T00:21:34;95365.63;;;8.47;51.04
48156;BME280;35568;48.104;11.782;2023-04-28T00:24:00;95360.89;;;8.46;51.30
48156;BME280;35568;48.104;11.782;2023-04-28T00:26:27;95355.26;;;8.45;51.20
48156;BME280;35568;48.104;11.782;2023-04-28T00:28:54;95351.88;;;8.18;51.31
48156;BME280;35568;48.104;11.782;2023-04-28T00:31:20;95351.47;;;8.37;51.38
48156;BME280;35568;48.104;11.782;2023-04-28T00:33:48;95354.71;;;7.78;51.46
48156;BME280;35568;48.104;11.782;2023-04-28T00:36:15;95356.31;;;8.00;51.57
48156;BME280;35568;48.104;11.782;2023-04-28T00:38:42;95348.26;;;7.79;51.45
48156;BME280;35568;48.104;11.782;2023-04-28T00:41:09;95345.18;;;8.01;51.23
48156;BME280;35568;48.104;11.782;2023-04-28T00:43:44;95341.65;;;8.44;51.00
48156;BME280;35568;48.104;11.782;2023-04-28T00:46:11;95338.04;;;8.13;51.18
48156;BME280;35568;48.104;11.782;2023-04-28T00:48:39;95332.22;;;8.26;51.43
48156;BME280;35568;48.104;11.782;2023-04-28T00:51:06;95331.29;;;8.18;51.21
48156;BME280;35568;48.104;11.782;2023-04-28T00:53:33;95332.45;;;8.19;51.26
48156;BME280;35568;48.104;11.782;2023-04-28T00:56:01;95334.14;;;8.19;51.36
48156;BME280;35568;48.104;11.782;2023-04-28T00:58:29;95331.22;;;8.20;51.44
48156;BME280;35568;48.104;11.782;2023-04-28T01:01:02;95333.23;;;8.12;51.64
48156;BME280;35568;48.104;11.782;2023-04-28T01:03:29;95334.48;;;8.19;51.63
48156;BME280;35568;48.104;11.782;2023-04-28T01:05:56;95335.75;;;8.00;51.64
48156;BME280;35568;48.104;11.782;2023-04-28T01:08:28;95330.79;;;8.24;51.29
48156;BME280;35568;48.104;11.782;2023-04-28T01:10:55;95328.07;;;8.32;51.00
48156;BME280;35568;48.104;11.782;2023-04-28T01:13:23;95328.12;;;8.46;51.16
48156;BME280;35568;48.104;11.782;2023-04-28T01:15:50;95325.13;;;8.41;51.42
48156;BME280;35568;48.104;11.782;2023-04-28T01:18:17;95318.57;;;8.46;51.43
48156;BME280;35568;48.104;11.782;2023-04-28T01:20:45;95318.36;;;8.40;51.55
48156;BME280;35568;48.104;11.782;2023-04-28T01:23:12;95314.33;;;8.38;51.51
48156;BME280;35568;48.104;11.782;2023-04-28T01:25:44;95313.73;;;8.36;51.57
48156;BME280;35568;48.104;11.782;2023-04-28T01:28:11;95311.15;;;8.55;51.71
48156;BME280;35568;48.104;11.782;2023-04-28T01:30:38;95311.03;;;8.32;51.81
48156;BME280;35568;48.104;11.782;2023-04-28T01:33:05;95310.50;;;8.52;51.95
48156;BME280;35568;48.104;11.782;2023-04-28T01:35:32;95309.31;;;8.56;51.97
48156;BME280;35568;48.104;11.782;2023-04-28T01:37:59;95305.93;;;8.71;51.79
48156;BME280;35568;48.104;11.782;2023-04-28T01:40:26;95303.02;;;8.37;51.96
48156;BME280;35568;48.104;11.782;2023-04-28T01:42:53;95298.95;;;8.30;51.80
48156;BME280;35568;48.104;11.782;2023-04-28T01:45:20;95299.20;;;8.49;51.62
48156;BME280;35568;48.104;11.782;2023-04-28T01:47:47;95301.35;;;8.74;51.55
48156;BME280;35568;48.104;11.782;2023-04-28T01:50:14;95303.93;;;8.40;51.81
48156;BME280;35568;48.104;11.782;2023-04-28T01:52:41;95302.18;;;8.65;51.59
48156;BME280;35568;48.104;11.782;2023-04-28T01:55:08;95297.29;;;8.79;51.38
48156;BME280;35568;48.104;11.782;2023-04-28T01:57:35;95297.57;;;8.89;51.20
48156;BME280;35568;48.104;11.782;2023-04-28T02:00:02;95294.35;;;9.03;51.04
48156;BME280;35568;48.104;11.782;2023-04-28T02:02:29;95293.71;;;9.14;50.86
48156;BME280;35568;48.104;11.782;2023-04-28T02:04:56;95299.46;;;9.24;50.72
48156;BME280;35568;48.104;11.782;2023-04-28T02:07:22;95305.90;;;9.00;51.04
48156;BME280;35568;48.104;11.782;2023-04-28T02:09:50;95305.86;;;8.92;51.39
48156;BME280;35568;48.104;11.782;2023-04-28T02:12:17;95305.31;;;9.11;51.12
48156;BME280;35568;48.104;11.782;2023-04-28T02:14:44;95303.50;;;9.23;50.94
48156;BME280;35568;48.104;11.782;2023-04-28T02:17:10;95296.70;;;9.23;50.95
48156;BME280;35568;48.104;11.782;2023-04-28T02:19:38;95298.21;;;8.77;51.15
48156;BME280;35568;48.104;11.782;2023-04-28T02:22:04;95299.90;;;8.87;51.45
48156;BME280;35568;48.104;11.782;2023-04-28T02:24:34;95303.64;;;8.88;51.41
48156;BME280;35568;48.104;11.782;2023-04-28T02:27:01;95308.35;;;8.91;51.59
48156;BME280;35568;48.104;11.782;2023-04-28T02:29:29;95311.91;;;8.76;51.59
48156;BME280;35568;48.104;11.782;2023-04-28T02:31:56;95308.16;;;9.27;51.21
48156;BME280;35568;48.104;11.782;2023-04-28T02:34:23;95304.80;;;9.40;51.04
48156;BME280;35568;48.104;11.782;2023-04-28T02:36:50;95301.85;;;9.33;51.00
48156;BME280;35568;48.104;11.782;2023-04-28T02:39:16;95302.96;;;9.22;51.11
48156;BME280;35568;48.104;11.782;2023-04-28T02:41:43;95311.17;;;9.44;51.15
48156;BME280;35568;48.104;11.782;2023-04-28T02:44:10;95320.10;;;9.43;51.56
48156;BME280;35568;48.104;11.782;2023-04-28T02:46:37;95328.29;;;9.41;51.65
48156;BME280;35568;48.104;11.782;2023-04-28T02:49:04;95323.94;;;8.66;52.59
48156;BME280;35568;48.104;11.782;2023-04-28T02:51:31;95308.25;;;8.93;53.10
48156;BME280;35568;48.104;11.782;2023-04-28T02:53:58;95281.31;;;8.98;53.13
48156;BME280;35568;48.104;11.782;2023-04-28T02:56:30;95272.00;;;8.74;54.04
48156;BME280;35568;48.104;11.782;2023-04-28T02:58:57;95276.97;;;8.55;54.05
48156;BME280;35568;48.104;11.782;2023-04-28T03:03:01;95286.84;;;9.01;53.48
48156;BME280;35568;48.104;11.782;2023-04-28T03:05:33;95285.84;;;9.25;52.67
48156;BME280;35568;48.104;11.782;2023-04-28T03:08:00;95282.21;;;8.96;54.22
48156;BME280;35568;48.104;11.782;2023-04-28T03:10:27;95275.38;;;8.92;54.36
48156;BME280;35568;48.104;11.782;2023-04-28T03:12:54;95275.97;;;8.88;54.82
48156;BME280;35568;48.104;11.782;2023-04-28T03:15:21;95271.08;;;9.09;54.52
48156;BME280;35568;48.104;11.782;2023-04-28T03:17:48;95265.59;;;9.09;54.44
48156;BME280;35568;48.104;11.782;2023-04-28T03:20:14;95258.29;;;8.83;54.54
48156;BME280;35568;48.104;11.782;2023-04-28T03:22:41;95255.42;;;8.79;54.74
48156;BME280;35568;48.104;11.782;2023-04-28T03:25:08;95255.16;;;8.71;55.09
48156;BME280;35568;48.104;11.782;2023-04-28T03:27:35;95252.12;;;8.58;55.31
48156;BME280;35568;48.104;11.782;2023-04-28T03:30:02;95248.90;;;8.61;55.61
48156;BME280;35568;48.104;11.782;2023-04-28T03:32:30;95249.37;;;8.41;56.24
48156;BME280;35568;48.104;11.782;2023-04-28T03:34:57;95247.13;;;8.37;56.39
48156;BME280;35568;48.104;11.782;2023-04-28T03:37:23;95252.82;;;8.50;56.30
48156;BME280;35568;48.104;11.782;2023-04-28T03:39:51;95257.39;;;8.87;55.96
48156;BME280;35568;48.104;11.782;2023-04-28T03:42:18;95253.24;;;8.93;55.62
48156;BME280;35568;48.104;11.782;2023-04-28T03:44:44;95264.63;;;8.80;55.66
48156;BME280;35568;48.104;11.782;2023-04-28T03:47:11;95272.04;;;8.77;55.71
48156;BME280;35568;48.104;11.782;2023-04-28T03:49:38;95266.80;;;8.96;55.48
48156;BME280;35568;48.104;11.782;2023-04-28T03:52:05;95259.26;;;9.19;55.11
48156;BME280;35568;48.104;11.782;2023-04-28T03:54:32;95255.73;;;9.31;54.94
48156;BME280;35568;48.104;11.782;2023-04-28T03:56:59;95254.34;;;9.12;55.01
48156;BME280;35568;48.104;11.782;2023-04-28T03:59:26;95254.52;;;9.31;54.90
48156;BME280;35568;48.104;11.782;2023-04-28T04:01:53;95259.37;;;9.16;55.23
48156;BME280;35568;48.104;11.782;2023-04-28T04:04:20;95262.82;;;8.97;55.32
48156;BME280;35568;48.104;11.782;2023-04-28T04:06:47;95263.91;;;8.85;55.60
48156;BME280;35568;48.104;11.782;2023-04-28T04:09:14;95263.71;;;9.01;55.80
48156;BME280;35568;48.104;11.782;2023-04-28T04:11:40;95257.85;;;8.98;56.02
48156;BME280;35568;48.104;11.782;2023-04-28T04:14:07;95256.24;;;8.77;56.02
48156;BME280;35568;48.104;11.782;2023-04-28T04:16:35;95256.16;;;9.08;56.07
48156;BME280;35568;48.104;11.782;2023-04-28T04:19:02;95256.93;;;8.98;56.16
48156;BME280;35568;48.104;11.782;2023-04-28T04:21:29;95251.91;;;9.01;56.29
48156;BME280;35568;48.104;11.782;2023-04-28T04:23:56;95257.93;;;8.95;56.38
48156;BME280;35568;48.104;11.782;2023-04-28T04:26:23;95267.52;;;9.00;56.56
48156;BME280;35568;48.104;11.782;2023-04-28T04:28:50;95267.60;;;8.95;56.10
48156;BME280;35568;48.104;11.782;2023-04-28T04:31:18;95261.82;;;9.28;56.04
48156;BME280;35568;48.104;11.782;2023-04-28T04:33:45;95258.93;;;9.42;55.38
48156;BME280;35568;48.104;11.782;2023-04-28T04:36:12;95258.96;;;9.16;55.64
48156;BME280;35568;48.104;11.782;2023-04-28T04:38:39;95255.40;;;9.47;55.52
48156;BME280;35568;48.104;11.782;2023-04-28T04:41:06;95244.99;;;9.27;55.47
48156;BME280;35568;48.104;11.782;2023-04-28T04:43:32;95245.54;;;9.64;55.33
48156;BME280;35568;48.104;11.782;2023-04-28T04:45:59;95249.30;;;9.90;55.64
48156;BME280;35568;48.104;11.782;2023-04-28T04:48:26;95249.50;;;9.48;55.42
48156;BME280;35568;48.104;11.782;2023-04-28T04:50:53;95253.87;;;9.72;55.63
48156;BME280;35568;48.104;11.782;2023-04-28T04:53:20;95258.06;;;9.85;55.27
48156;BME280;35568;48.104;11.782;2023-04-28T04:55:46;95260.38;;;9.81;54.75
48156;BME280;35568;48.104;11.782;2023-04-28T04:58:13;95263.49;;;10.10;54.95
48156;BME280;35568;48.104;11.782;2023-04-28T05:00:40;95259.67;;;9.78;55.14
48156;BME280;35568;48.104;11.782;2023-04-28T05:03:07;95254.49;;;9.91;54.89
48156;BME280;35568;48.104;11.782;2023-04-28T05:05:34;95247.32;;;9.44;55.18
48156;BME280;35568;48.104;11.782;2023-04-28T05:08:01;95239.73;;;9.58;55.17
48156;BME280;35568;48.104;11.782;2023-04-28T05:10:28;95245.53;;;9.77;54.95
48156;BME280;35568;48.104;11.782;2023-04-28T05:12:55;95251.62;;;10.07;54.90
48156;BME280;35568;48.104;11.782;2023-04-28T05:15:22;95258.24;;;10.27;54.51
48156;BME280;35568;48.104;11.782;2023-04-28T05:17:49;95260.22;;;10.39;54.31
48156;BME280;35568;48.104;11.782;2023-04-28T05:20:16;95259.82;;;10.70;54.29
48156;BME280;35568;48.104;11.782;2023-04-28T05:22:43;95257.89;;;10.40;53.48
48156;BME280;35568;48.104;11.782;2023-04-28T05:25:10;95260.09;;;10.41;53.85
48156;BME280;35568;48.104;11.782;2023-04-28T05:27:37;95259.61;;;10.30;54.17
48156;BME280;35568;48.104;11.782;2023-04-28T05:30:05;95263.22;;;10.33;54.29
48156;BME280;35568;48.104;11.782;2023-04-28T05:32:33;95266.69;;;10.32;54.26
48156;BME280;35568;48.104;11.782;2023-04-28T05:35:00;95270.53;;;10.52;53.88
48156;BME280;35568;48.104;11.782;2023-04-28T05:37:27;95273.55;;;10.59;54.03
48156;BME280;35568;48.104;11.782;2023-04-28T05:39:54;95281.38;;;10.27;53.94
48156;BME280;35568;48.104;11.782;2023-04-28T05:42:22;95282.82;;;10.23;54.34
48156;BME280;35568;48.104;11.782;2023-04-28T05:44:48;95283.03;;;9.84;55.27
48156;BME280;35568;48.104;11.782;2023-04-28T05:47:15;95280.55;;;9.79;55.37
48156;BME280;35568;48.104;11.782;2023-04-28T05:49:42;95278.00;;;9.70;55.48
48156;BME280;35568;48.104;11.782;2023-04-28T05:52:09;95275.98;;;9.64;55.78
48156;BME280;35568;48.104;11.782;2023-04-28T05:54:35;95281.47;;;9.77;55.85
48156;BME280;35568;48.104;11.782;2023-04-28T05:57:03;95286.25;;;9.95;55.77
48156;BME280;35568;48.104;11.782;2023-04-28T05:59:30;95285.30;;;9.77;55.97
48156;BME280;35568;48.104;11.782;2023-04-28T06:01:58;95287.57;;;9.51;55.81
48156;BME280;35568;48.104;11.782;2023-04-28T06:04:24;95288.50;;;9.47;56.02
48156;BME280;35568;48.104;11.782;2023-04-28T06:06:51;95285.99;;;9.33;56.09
48156;BME280;35568;48.104;11.782;2023-04-28T06:09:18;95278.79;;;9.91;55.78
48156;BME280;35568;48.104;11.782;2023-04-28T06:11:46;95282.51;;;9.87;55.64
48156;BME280;35568;48.104;11.782;2023-04-28T06:14:13;95280.32;;;9.94;55.74
48156;BME280;35568;48.104;11.782;2023-04-28T06:16:41;95279.50;;;9.93;55.27
48156;BME280;35568;48.104;11.782;2023-04-28T06:19:07;95283.78;;;9.80;55.71
48156;BME280;35568;48.104;11.782;2023-04-28T06:21:34;95297.23;;;9.80;55.84
48156;BME280;35568;48.104;11.782;2023-04-28T06:24:01;95302.19;;;9.54;56.15
48156;BME280;35568;48.104;11.782;2023-04-28T06:26:28;95302.89;;;9.71;56.40
48156;BME280;35568;48.104;11.782;2023-04-28T06:28:55;95297.08;;;9.59;55.89
48156;BME280;35568;48.104;11.782;2023-04-28T06:31:22;95295.99;;;9.93;55.63
48156;BME280;35568;48.104;11.782;2023-04-28T06:33:48;95296.69;;;10.21;54.98
48156;BME280;35568;48.104;11.782;2023-04-28T06:36:15;95294.97;;;9.94;55.04
48156;BME280;35568;48.104;11.782;2023-04-28T06:38:43;95295.80;;;9.80;55.89
48156;BME280;35568;48.104;11.782;2023-04-28T06:41:10;95293.84;;;10.37;54.91
48156;BME280;35568;48.104;11.782;2023-04-28T06:43:37;95287.96;;;10.14;55.24
48156;BME280;35568;48.104;11.782;2023-04-28T06:46:04;95286.67;;;10.17;54.96
48156;BME280;35568;48.104;11.782;2023-04-28T06:48:31;95283.83;;;10.19;55.13
48156;BME280;35568;48.104;11.782;2023-04-28T06:50:58;95279.69;;;10.29;54.87
48156;BME280;35568;48.104;11.782;2023-04-28T06:53:24;95278.36;;;10.58;55.11
48156;BME280;35568;48.104;11.782;2023-04-28T06:55:51;95273.42;;;10.64;54.91
48156;BME280;35568;48.104;11.782;2023-04-28T06:58:19;95267.08;;;10.75;55.00
48156;BME280;35568;48.104;11.782;2023-04-28T07:00:46;95263.51;;;10.66;55.03
48156;BME280;35568;48.104;11.782;2023-04-28T07:03:13;95257.04;;;10.79;54.79
48156;BME280;35568;48.104;11.782;2023-04-28T07:05:39;95257.79;;;11.22;54.62
48156;BME280;35568;48.104;11.782;2023-04-28T07:08:06;95258.92;;;11.36;53.85
48156;BME280;35568;48.104;11.782;2023-04-28T07:10:33;95258.45;;;11.69;54.05
48156;BME280;35568;48.104;11.782;2023-04-28T07:13:00;95262.46;;;11.70;54.27
48156;BME280;35568;48.104;11.782;2023-04-28T07:15:27;95260.72;;;11.55;53.67
48156;BME280;35568;48.104;11.782;2023-04-28T07:17:54;95254.76;;;11.89;53.53
48156;BME280;35568;48.104;11.782;2023-04-28T07:20:21;95252.82;;;12.22;53.59
48156;BME280;35568;48.104;11.782;2023-04-28T07:22:48;95252.84;;;12.28;53.71
48156;BME280;35568;48.104;11.782;2023-04-28T07:25:15;95250.61;;;12.30;52.72
48156;BME280;35568;48.104;11.782;2023-04-28T07:27:42;95253.38;;;12.12;52.97
48156;BME280;35568;48.104;11.782;2023-04-28T07:30:11;95247.92;;;11.97;53.31
48156;BME280;35568;48.104;11.782;2023-04-28T07:32:39;95246.54;;;11.82;54.27
48156;BME280;35568;48.104;11.782;2023-04-28T07:35:06;95244.26;;;11.95;53.76
48156;BME280;35568;48.104;11.782;2023-04-28T07:37:33;95237.06;;;12.24;54.10
48156;BME280;35568;48.104;11.782;2023-04-28T07:40:00;95233.37;;;12.26;53.88
48156;BME280;35568;48.104;11.782;2023-04-28T07:42:27;95235.19;;;12.36;53.73
48156;BME280;35568;48.104;11.782;2023-04-28T07:44:53;95234.99;;;12.40;53.82
48156;BME280;35568;48.104;11.782;2023-04-28T07:47:20;95238.47;;;12.28;53.56
48156;BME280;35568;48.104;11.782;2023-04-28T07:49:47;95237.20;;;12.57;53.62
48156;BME280;35568;48.104;11.782;2023-04-28T07:52:14;95236.37;;;12.62;54.15
48156;BME280;35568;48.104;11.782;2023-04-28T07:54:41;95238.77;;;12.65;53.43
48156;BME280;35568;48.104;11.782;2023-04-28T07:57:07;95242.70;;;12.69;53.41
48156;BME280;35568;48.104;11.782;2023-04-28T07:59:34;95244.55;;;12.65;53.06
48156;BME280;35568;48.104;11.782;2023-04-28T08:02:01;95251.33;;;13.03;52.67
48156;BME280;35568;48.104;11.782;2023-04-28T08:04:28;95250.28;;;12.63;53.09
48156;BME280;35568;48.104;11.782;2023-04-28T08:06:55;95250.98;;;13.00;52.88
48156;BME280;35568;48.104;11.782;2023-04-28T08:09:22;95249.72;;;13.09;52.90
48156;BME280;35568;48.104;11.782;2023-04-28T08:11:50;95254.01;;;13.00;52.77
48156;BME280;35568;48.104;11.782;2023-04-28T08:14:17;95253.19;;;12.93;53.32
48156;BME280;35568;48.104;11.782;2023-04-28T08:16:44;95252.44;;;13.15;53.58
48156;BME280;35568;48.104;11.782;2023-04-28T08:19:10;95250.78;;;13.38;53.23
48156;BME280;35568;48.104;11.782;2023-04-28T08:21:37;95251.66;;;13.04;53.44
48156;BME280;35568;48.104;11.782;2023-04-28T08:24:04;95252.10;;;13.21;53.23
48156;BME280;35568;48.104;11.782;2023-04-28T08:26:32;95250.36;;;13.24;52.40
48156;BME280;35568;48.104;11.782;2023-04-28T08:28:58;95246.08;;;13.62;52.47
48156;BME280;35568;48.104;11.782;2023-04-28T08:31:25;95246.75;;;13.57;53.17
48156;BME280;35568;48.104;11.782;2023-04-28T08:33:52;95250.05;;;13.28;53.00
48156;BME280;35568;48.104;11.782;2023-04-28T08:36:19;95244.24;;;13.52;53.07
48156;BME280;35568;48.104;11.782;2023-04-28T08:38:46;95242.62;;;13.33;53.86
48156;BME280;35568;48.104;11.782;2023-04-28T08:41:15;95239.58;;;13.53;53.61
48156;BME280;35568;48.104;11.782;2023-04-28T08:43:42;95235.67;;;13.98;53.76
48156;BME280;35568;48.104;11.782;2023-04-28T08:46:09;95235.19;;;13.29;54.16
48156;BME280;35568;48.104;11.782;2023-04-28T08:48:39;95230.57;;;13.18;53.97
48156;BME280;35568;48.104;11.782;2023-04-28T08:51:07;95230.06;;;13.16;53.95
48156;BME280;35568;48.104;11.782;2023-04-28T08:53:37;95225.04;;;13.08;54.09
48156;BME280;35568;48.104;11.782;2023-04-28T08:56:05;95216.84;;;13.44;54.50
48156;BME280;35568;48.104;11.782;2023-04-28T08:58:34;95223.66;;;12.77;54.45
48156;BME280;35568;48.104;11.782;2023-04-28T09:01:02;95219.79;;;12.84;54.96
48156;BME280;35568;48.104;11.782;2023-04-28T09:03:29;95221.34;;;13.18;55.03
48156;BME280;35568;48.104;11.782;2023-04-28T09:05:55;95216.45;;;13.14;54.47
48156;BME280;35568;48.104;11.782;2023-04-28T09:08:23;95215.62;;;13.35;54.90
48156;BME280;35568;48.104;11.782;2023-04-28T09:11:05;95214.86;;;13.61;55.13
48156;BME280;35568;48.104;11.782;2023-04-28T09:13:32;95216.08;;;13.16;54.91
48156;BME280;35568;48.104;11.782;2023-04-28T09:15:59;95213.18;;;13.59;54.33
48156;BME280;35568;48.104;11.782;2023-04-28T09:18:27;95211.83;;;13.45;54.77
48156;BME280;35568;48.104;11.782;2023-04-28T09:21:02;95205.10;;;12.83;54.64
48156;BME280;35568;48.104;11.782;2023-04-28T09:23:28;95200.02;;;12.98;54.85
48156;BME280;35568;48.104;11.782;2023-04-28T09:25:58;95201.04;;;13.03;55.16
48156;BME280;35568;48.104;11.782;2023-04-28T09:28:25;95197.41;;;13.08;54.76
48156;BME280;35568;48.104;11.782;2023-04-28T09:30:51;95193.03;;;13.24;54.65
48156;BME280;35568;48.104;11.782;2023-04-28T09:33:18;95196.42;;;13.27;55.17
48156;BME280;35568;48.104;11.782;2023-04-28T09:35:45;95193.12;;;12.81;55.06
48156;BME280;35568;48.104;11.782;2023-04-28T09:38:12;95195.20;;;13.33;54.82
48156;BME280;35568;48.104;11.782;2023-04-28T09:40:56;95197.88;;;13.07;55.45
48156;BME280;35568;48.104;11.782;2023-04-28T09:43:25;95199.17;;;12.60;55.69
48156;BME280;35568;48.104;11.782;2023-04-28T09:45:52;95202.53;;;12.70;55.70
48156;BME280;35568;48.104;11.782;2023-04-28T09:48:27;95201.80;;;12.61;55.88
48156;BME280;35568;48.104;11.782;2023-04-28T09:50:54;95201.41;;;12.79;55.68
48156;BME280;35568;48.104;11.782;2023-04-28T09:53:22;95206.97;;;12.51;56.36
48156;BME280;35568;48.104;11.782;2023-04-28T09:55:51;95200.10;;;12.64;56.53
48156;BME280;35568;48.104;11.782;2023-04-28T09:58:19;95194.59;;;12.18;56.95
48156;BME280;35568;48.104;11.782;2023-04-28T10:00:50;95196.48;;;11.93;57.98
48156;BME280;35568;48.104;11.782;2023-04-28T10:03:20;95190.17;;;12.46;58.04
48156;BME280;35568;48.104;11.782;2023-04-28T10:05:47;95189.41;;;12.20;57.53
48156;BME280;35568;48.104;11.782;2023-04-28T10:08:15;95185.75;;;12.17;57.80
48156;BME280;35568;48.104;11.782;2023-04-28T10:10:43;95178.82;;;12.13;57.92
48156;BME280;35568;48.104;11.782;2023-04-28T10:13:10;95181.96;;;12.13;57.99
48156;BME280;35568;48.104;11.782;2023-04-28T10:15:38;95175.32;;;11.83;58.11
48156;BME280;35568;48.104;11.782;2023-04-28T10:18:07;95175.79;;;11.94;57.81
48156;BME280;35568;48.104;11.782;2023-04-28T10:20:34;95168.87;;;12.12;57.65
48156;BME280;35568;48.104;11.782;2023-04-28T10:23:27;95169.47;;;12.23;57.89
48156;BME280;35568;48.104;11.782;2023-04-28T10:25:57;95170.69;;;12.44;58.12
48156;BME280;35568;48.104;11.782;2023-04-28T10:28:25;95179.16;;;12.30;56.98
48156;BME280;35568;48.104;11.782;2023-04-28T10:31:08;95179.70;;;12.06;57.55
48156;BME280;35568;48.104;11.782;2023-04-28T10:33:36;95174.66;;;12.36;57.78
48156;BME280;35568;48.104;11.782;2023-04-28T10:36:04;95173.73;;;12.29;57.81
48156;BME280;35568;48.104;11.782;2023-04-28T10:38:32;95167.42;;;12.50;57.39
48156;BME280;35568;48.104;11.782;2023-04-28T10:41:00;95164.26;;;12.37;57.61
48156;BME280;35568;48.104;11.782;2023-04-28T10:43:35;95164.19;;;12.37;58.02
48156;BME280;35568;48.104;11.782;2023-04-28T10:46:05;95159.08;;;12.36;57.45
48156;BME280;35568;48.104;11.782;2023-04-28T10:49:04;95162.54;;;12.72;57.36
48156;BME280;35568;48.104;11.782;2023-04-28T10:51:32;95162.53;;;12.49;57.42
48156;BME280;35568;48.104;11.782;2023-04-28T10:54:09;95162.42;;;12.56;57.80
48156;BME280;35568;48.104;11.782;2023-04-28T10:56:36;95163.04;;;12.93;57.57
48156;BME280;35568;48.104;11.782;2023-04-28T10:59:24;95159.76;;;12.63;57.42
48156;BME280;35568;48.104;11.782;2023-04-28T11:01:51;95163.96;;;12.53;57.91
48156;BME280;35568;48.104;11.782;2023-04-28T11:04:18;95158.66;;;12.25;58.20
48156;BME280;35568;48.104;11.782;2023-04-28T11:06:46;95157.18;;;12.48;57.82
48156;BME280;35568;48.104;11.782;2023-04-28T11:09:46;95156.77;;;12.70;58.31
48156;BME280;35568;48.104;11.782;2023-04-28T11:12:13;95160.23;;;12.29;58.10
48156;BME280;35568;48.104;11.782;2023-04-28T11:14:40;95158.39;;;12.41;57.92
48156;BME280;35568;48.104;11.782;2023-04-28T11:17:08;95165.08;;;12.54;57.72
48156;BME280;35568;48.104;11.782;2023-04-28T11:19:37;95171.35;;;12.49;57.96
48156;BME280;35568;48.104;11.782;2023-04-28T11:22:05;95164.50;;;12.39;58.19
48156;BME280;35568;48.104;11.782;2023-04-28T11:24:32;95165.49;;;12.38;58.27
48156;BME280;35568;48.104;11.782;2023-04-28T11:26:59;95170.79;;;12.40;58.18
48156;BME280;35568;48.104;11.782;2023-04-28T11:29:30;95172.83;;;12.56;58.26
48156;BME280;35568;48.104;11.782;2023-04-28T11:31:58;95171.62;;;12.66;58.32
48156;BME280;35568;48.104;11.782;2023-04-28T11:34:25;95180.01;;;12.55;58.02
48156;BME280;35568;48.104;11.782;2023-04-28T11:36:51;95174.28;;;12.65;58.36
48156;BME280;35568;48.104;11.782;2023-04-28T11:39:25;95180.67;;;12.83;57.80
48156;BME280;35568;48.104;11.782;2023-04-28T11:41:53;95172.04;;;12.77;57.41
48156;BME280;35568;48.104;11.782;2023-04-28T11:44:22;95177.02;;;12.49;58.09
48156;BME280;35568;48.104;11.782;2023-04-28T11:46:50;95173.85;;;12.34;58.16
48156;BME280;35568;48.104;11.782;2023-04-28T11:49:18;95177.01;;;12.61;57.74
48156;BME280;35568;48.104;11.782;2023-04-28T11:51:45;95170.30;;;12.76;57.51
48156;BME280;35568;48.104;11.782;2023-04-28T11:54:12;95164.44;;;12.54;57.87
48156;BME280;35568;48.104;11.782;2023-04-28T11:56:39;95158.80;;;12.73;57.86
48156;BME280;35568;48.104;11.782;2023-04-28T11:59:08;95168.25;;;12.79;57.40
48156;BME280;35568;48.104;11.782;2023-04-28T12:01:44;95162.99;;;12.86;57.54
48156;BME280;35568;48.104;11.782;2023-04-28T12:04:11;95166.05;;;12.74;57.72
48156;BME280;35568;48.104;11.782;2023-04-28T12:06:39;95156.78;;;12.56;57.10
48156;BME280;35568;48.104;11.782;2023-04-28T12:09:22;95161.41;;;12.53;57.49
48156;BME280;35568;48.104;11.782;2023-04-28T12:11:54;95165.08;;;12.52;57.81
48156;BME280;35568;48.104;11.782;2023-04-28T12:14:27;95168.18;;;12.75;58.48
48156;BME280;35568;48.104;11.782;2023-04-28T12:16:55;95169.07;;;12.59;57.91
48156;BME280;35568;48.104;11.782;2023-04-28T12:19:22;95171.61;;;12.56;58.02
48156;BME280;35568;48.104;11.782;2023-04-28T12:22:05;95164.77;;;12.35;58.66
48156;BME280;35568;48.104;11.782;2023-04-28T12:24:32;95164.10;;;12.61;58.69
48156;BME280;35568;48.104;11.782;2023-04-28T12:27:32;95162.45;;;12.57;58.11
48156;BME280;35568;48.104;11.782;2023-04-28T12:29:59;95160.35;;;12.13;58.95
48156;BME280;35568;48.104;11.782;2023-04-28T12:32:42;95160.41;;;12.12;59.22
48156;BME280;35568;48.104;11.782;2023-04-28T12:35:09;95171.17;;;12.04;59.26
48156;BME280;35568;48.104;11.782;2023-04-28T12:37:37;95172.03;;;12.45;58.80
48156;BME280;35568;48.104;11.782;2023-04-28T12:40:06;95171.64;;;12.40;59.16
48156;BME280;35568;48.104;11.782;2023-04-28T12:42:33;95177.37;;;12.90;58.92
48156;BME280;35568;48.104;11.782;2023-04-28T12:45:00;95176.37;;;13.30;58.24
48156;BME280;35568;48.104;11.782;2023-04-28T12:47:28;95174.78;;;13.45;58.24
48156;BME280;35568;48.104;11.782;2023-04-28T12:49:56;95182.57;;;13.07;57.77
48156;BME280;35568;48.104;11.782;2023-04-28T12:52:23;95183.31;;;12.75;57.85
48156;BME280;35568;48.104;11.782;2023-04-28T12:54:49;95187.31;;;12.92;58.35
48156;BME280;35568;48.104;11.782;2023-04-28T12:57:17;95179.65;;;13.08;58.11
48156;BME280;35568;48.104;11.782;2023-04-28T12:59:45;95185.36;;;12.81;58.59
48156;BME280;35568;48.104;11.782;2023-04-28T13:02:13;95182.29;;;12.70;59.04